sensor_id;sensor_type;location;lat;lon;timestamp;P1;durP1;ratioP1;P2;durP2;ratioP2
3873;SDS011;1952;50.872;6.692;2024-02-21T00:00:32;9.67;;;5.30;;
3873;SDS011;1952;50.872;6.692;2024-02-21T00:03:00;9.87;;;5.50;;
3873;SDS011;1952;50.872;6.692;2024-02-21T00:05:30;13.13;;;5.90;;
3873;SDS011;1952;50.872;6.692;2024-02-21T00:07:59;11.20;;;5.90;;
3873;SDS011;1952;50.872;6.692;2024-02-21T00:10:27;10.50;;;5.73;;
3873;SDS011;1952;50.872;6.692;2024-02-21T00:13:13;14.40;;;4.77;;
3873;SDS011;1952;50.872;6.692;2024-02-21T00:15:41;8.27;;;5.20;;
3873;SDS011;1952;50.872;6.692;2024-02-21T00:18:09;7.83;;;5.37;;
3873;SDS011;1952;50.872;6.692;2024-02-21T00:20:38;10.03;;;5.20;;
3873;SDS011;1952;50.872;6.692;2024-02-21T00:23:06;6.30;;;5.80;;
3873;SDS011;1952;50.872;6.692;2024-02-21T00:25:35;8.87;;;4.83;;
3873;SDS011;1952;50.872;6.692;2024-02-21T00:28:04;11.83;;;5.33;;
3873;SDS011;1952;50.872;6.692;2024-02-21T00:30:34;6.80;;;4.70;;
3873;SDS011;1952;50.872;6.692;2024-02-21T00:33:04;10.23;;;5.70;;
3873;SDS011;1952;50.872;6.692;2024-02-21T00:35:32;12.63;;;5.93;;
3873;SDS011;1952;50.872;6.692;2024-02-21T00:38:01;7.50;;;6.07;;
3873;SDS011;1952;50.872;6.692;2024-02-21T00:40:30;6.83;;;5.60;;
3873;SDS011;1952;50.872;6.692;2024-02-21T00:42:58;9.90;;;5.27;;
3873;SDS011;1952;50.872;6.692;2024-02-21T00:45:26;5.27;;;4.70;;
3873;SDS011;1952;50.872;6.692;2024-02-21T00:47:56;11.73;;;6.47;;
3873;SDS011;1952;50.872;6.692;2024-02-21T00:50:24;8.10;;;5.07;;
3873;SDS011;1952;50.872;6.692;2024-02-21T00:52:52;15.03;;;6.67;;
3873;SDS011;1952;50.872;6.692;2024-02-21T00:55:20;10.30;;;5.63;;
3873;SDS011;1952;50.872;6.692;2024-02-21T00:57:49;15.60;;;5.00;;
3873;SDS011;1952;50.872;6.692;2024-02-21T01:00:17;10.47;;;4.73;;
3873;SDS011;1952;50.872;6.692;2024-02-21T01:02:46;10.53;;;4.93;;
3873;SDS011;1952;50.872;6.692;2024-02-21T01:05:19;10.20;;;5.60;;
3873;SDS011;1952;50.872;6.692;2024-02-21T01:44:09;9.40;;;5.60;;
3873;SDS011;1952;50.872;6.692;2024-02-21T01:46:37;5.80;;;4.90;;
3873;SDS011;1952;50.872;6.692;2024-02-21T01:49:06;14.30;;;5.53;;
3873;SDS011;1952;50.872;6.692;2024-02-21T01:51:34;8.90;;;6.10;;
3873;SDS011;1952;50.872;6.692;2024-02-21T01:54:03;10.97;;;6.10;;
3873;SDS011;1952;50.872;6.692;2024-02-21T01:56:31;10.20;;;6.20;;
3873;SDS011;1952;50.872;6.692;2024-02-21T01:58:59;9.73;;;6.37;;
3873;SDS011;1952;50.872;6.692;2024-02-21T02:01:29;6.63;;;5.40;;
3873;SDS011;1952;50.872;6.692;2024-02-21T02:03:57;9.27;;;6.03;;
3873;SDS011;1952;50.872;6.692;2024-02-21T02:06:27;9.00;;;5.27;;
3873;SDS011;1952;50.872;6.692;2024-02-21T02:08:55;7.03;;;5.20;;
3873;SDS011;1952;50.872;6.692;2024-02-21T02:11:24;11.70;;;5.63;;
3873;SDS011;1952;50.872;6.692;2024-02-21T02:13:53;12.67;;;6.37;;
3873;SDS011;1952;50.872;6.692;2024-02-21T02:16:21;7.37;;;5.20;;
3873;SDS011;1952;50.872;6.692;2024-02-21T02:18:51;8.43;;;4.97;;
3873;SDS011;1952;50.872;6.692;2024-02-21T02:21:22;10.20;;;5.40;;
3873;SDS011;1952;50.872;6.692;2024-02-21T02:23:52;9.40;;;6.00;;
3873;SDS011;1952;50.872;6.692;2024-02-21T02:26:21;10.20;;;5.10;;
3873;SDS011;1952;50.872;6.692;2024-02-21T02:28:49;8.97;;;5.43;;
3873;SDS011;1952;50.872;6.692;2024-02-21T02:31:18;10.47;;;5.87;;
3873;SDS011;1952;50.872;6.692;2024-02-21T02:33:46;5.90;;;4.27;;
3873;SDS011;1952;50.872;6.692;2024-02-21T02:36:15;9.07;;;5.40;;
3873;SDS011;1952;50.872;6.692;2024-02-21T02:38:44;10.43;;;4.93;;
3873;SDS011;1952;50.872;6.692;2024-02-21T02:41:13;8.30;;;4.93;;
3873;SDS011;1952;50.872;6.692;2024-02-21T02:43:41;15.30;;;6.00;;
3873;SDS011;1952;50.872;6.692;2024-02-21T02:46:10;6.50;;;5.30;;
3873;SDS011;1952;50.872;6.692;2024-02-21T02:48:38;7.40;;;4.70;;
3873;SDS011;1952;50.872;6.692;2024-02-21T02:51:07;13.27;;;6.10;;
3873;SDS011;1952;50.872;6.692;2024-02-21T02:53:35;9.20;;;5.40;;
3873;SDS011;1952;50.872;6.692;2024-02-21T02:56:03;7.83;;;4.50;;
3873;SDS011;1952;50.872;6.692;2024-02-21T02:58:33;12.70;;;6.80;;
3873;SDS011;1952;50.872;6.692;2024-02-21T03:01:02;12.87;;;6.50;;
3873;SDS011;1952;50.872;6.692;2024-02-21T03:03:30;11.70;;;6.40;;
3873;SDS011;1952;50.872;6.692;2024-02-21T03:05:58;6.83;;;4.50;;
3873;SDS011;1952;50.872;6.692;2024-02-21T03:08:27;17.13;;;5.07;;
3873;SDS011;1952;50.872;6.692;2024-02-21T03:10:55;10.40;;;5.47;;
3873;SDS011;1952;50.872;6.692;2024-02-21T03:13:24;9.33;;;5.00;;
3873;SDS011;1952;50.872;6.692;2024-02-21T03:15:53;11.87;;;6.03;;
3873;SDS011;1952;50.872;6.692;2024-02-21T03:18:21;10.23;;;6.33;;
3873;SDS011;1952;50.872;6.692;2024-02-21T03:20:50;10.87;;;5.90;;
3873;SDS011;1952;50.872;6.692;2024-02-21T03:23:18;7.80;;;5.07;;
3873;SDS011;1952;50.872;6.692;2024-02-21T03:25:46;10.63;;;6.17;;
3873;SDS011;1952;50.872;6.692;2024-02-21T03:28:15;8.73;;;5.00;;
3873;SDS011;1952;50.872;6.692;2024-02-21T03:30:44;9.00;;;4.70;;
3873;SDS011;1952;50.872;6.692;2024-02-21T03:33:13;10.50;;;5.67;;
3873;SDS011;1952;50.872;6.692;2024-02-21T03:35:42;7.90;;;4.83;;
3873;SDS011;1952;50.872;6.692;2024-02-21T03:38:10;6.67;;;5.37;;
3873;SDS011;1952;50.872;6.692;2024-02-21T03:40:38;8.90;;;5.67;;
3873;SDS011;1952;50.872;6.692;2024-02-21T03:43:06;10.37;;;4.67;;
3873;SDS011;1952;50.872;6.692;2024-02-21T03:45:34;7.40;;;4.63;;
3873;SDS011;1952;50.872;6.692;2024-02-21T03:48:03;7.37;;;4.93;;
3873;SDS011;1952;50.872;6.692;2024-02-21T03:50:33;10.70;;;4.93;;
3873;SDS011;1952;50.872;6.692;2024-02-21T03:53:01;9.57;;;6.17;;
3873;SDS011;1952;50.872;6.692;2024-02-21T03:55:29;9.40;;;5.77;;
3873;SDS011;1952;50.872;6.692;2024-02-21T03:57:58;9.40;;;4.80;;
3873;SDS011;1952;50.872;6.692;2024-02-21T04:00:26;8.17;;;5.30;;
3873;SDS011;1952;50.872;6.692;2024-02-21T04:02:54;8.90;;;5.10;;
3873;SDS011;1952;50.872;6.692;2024-02-21T04:05:22;7.07;;;5.03;;
3873;SDS011;1952;50.872;6.692;2024-02-21T04:07:53;14.40;;;5.10;;
3873;SDS011;1952;50.872;6.692;2024-02-21T04:10:21;9.60;;;5.00;;
3873;SDS011;1952;50.872;6.692;2024-02-21T04:12:50;6.10;;;4.23;;
3873;SDS011;1952;50.872;6.692;2024-02-21T04:15:18;7.43;;;4.43;;
3873;SDS011;1952;50.872;6.692;2024-02-21T04:17:47;7.67;;;4.87;;
3873;SDS011;1952;50.872;6.692;2024-02-21T04:20:15;6.53;;;4.73;;
3873;SDS011;1952;50.872;6.692;2024-02-21T04:22:44;11.50;;;4.83;;
3873;SDS011;1952;50.872;6.692;2024-02-21T04:25:14;10.60;;;4.43;;
3873;SDS011;1952;50.872;6.692;2024-02-21T04:27:42;8.33;;;4.40;;
3873;SDS011;1952;50.872;6.692;2024-02-21T04:30:24;7.20;;;4.27;;
3873;SDS011;1952;50.872;6.692;2024-02-21T04:33:07;6.63;;;4.03;;
3873;SDS011;1952;50.872;6.692;2024-02-21T04:35:35;7.27;;;4.37;;
3873;SDS011;1952;50.872;6.692;2024-02-21T04:38:04;9.00;;;4.40;;
3873;SDS011;1952;50.872;6.692;2024-02-21T04:40:34;8.80;;;4.53;;
3873;SDS011;1952;50.872;6.692;2024-02-21T04:43:02;5.47;;;4.07;;
3873;SDS011;1952;50.872;6.692;2024-02-21T04:45:30;9.00;;;4.60;;
3873;SDS011;1952;50.872;6.692;2024-02-21T04:47:58;5.50;;;3.90;;
3873;SDS011;1952;50.872;6.692;2024-02-21T04:50:26;7.80;;;4.33;;
3873;SDS011;1952;50.872;6.692;2024-02-21T04:52:55;7.80;;;5.37;;
3873;SDS011;1952;50.872;6.692;2024-02-21T04:55:23;8.07;;;4.77;;
3873;SDS011;1952;50.872;6.692;2024-02-21T04:57:53;6.20;;;4.40;;
3873;SDS011;1952;50.872;6.692;2024-02-21T05:00:21;5.90;;;4.27;;
3873;SDS011;1952;50.872;6.692;2024-02-21T05:02:50;6.37;;;4.03;;
3873;SDS011;1952;50.872;6.692;2024-02-21T05:05:19;7.27;;;4.83;;
3873;SDS011;1952;50.872;6.692;2024-02-21T05:07:47;7.60;;;5.57;;
3873;SDS011;1952;50.872;6.692;2024-02-21T05:10:15;7.70;;;4.73;;
3873;SDS011;1952;50.872;6.692;2024-02-21T05:12:45;13.67;;;5.33;;
3873;SDS011;1952;50.872;6.692;2024-02-21T05:15:15;9.03;;;4.30;;
3873;SDS011;1952;50.872;6.692;2024-02-21T05:17:43;9.57;;;5.00;;
3873;SDS011;1952;50.872;6.692;2024-02-21T05:20:12;5.13;;;3.87;;
3873;SDS011;1952;50.872;6.692;2024-02-21T05:22:42;10.50;;;5.30;;
3873;SDS011;1952;50.872;6.692;2024-02-21T05:25:11;5.80;;;4.30;;
3873;SDS011;1952;50.872;6.692;2024-02-21T05:27:39;7.23;;;4.20;;
3873;SDS011;1952;50.872;6.692;2024-02-21T05:30:08;6.10;;;3.97;;
3873;SDS011;1952;50.872;6.692;2024-02-21T05:32:37;5.90;;;4.73;;
3873;SDS011;1952;50.872;6.692;2024-02-21T05:35:06;6.60;;;5.57;;
3873;SDS011;1952;50.872;6.692;2024-02-21T05:37:35;7.90;;;4.50;;
3873;SDS011;1952;50.872;6.692;2024-02-21T05:40:03;5.87;;;4.33;;
3873;SDS011;1952;50.872;6.692;2024-02-21T05:42:32;7.47;;;4.57;;
3873;SDS011;1952;50.872;6.692;2024-02-21T05:45:00;10.37;;;6.10;;
3873;SDS011;1952;50.872;6.692;2024-02-21T05:47:29;6.77;;;4.60;;
3873;SDS011;1952;50.872;6.692;2024-02-21T05:49:59;9.83;;;6.47;;
3873;SDS011;1952;50.872;6.692;2024-02-21T05:52:27;6.23;;;5.10;;
3873;SDS011;1952;50.872;6.692;2024-02-21T05:54:56;5.20;;;4.50;;
3873;SDS011;1952;50.872;6.692;2024-02-21T05:57:25;8.13;;;5.43;;
3873;SDS011;1952;50.872;6.692;2024-02-21T05:59:53;7.37;;;5.80;;
3873;SDS011;1952;50.872;6.692;2024-02-21T06:02:21;8.30;;;5.80;;
3873;SDS011;1952;50.872;6.692;2024-02-21T06:04:49;6.00;;;3.93;;
3873;SDS011;1952;50.872;6.692;2024-02-21T06:07:19;11.43;;;4.50;;
3873;SDS011;1952;50.872;6.692;2024-02-21T06:09:48;5.60;;;4.30;;
3873;SDS011;1952;50.872;6.692;2024-02-21T06:12:16;8.63;;;4.83;;
3873;SDS011;1952;50.872;6.692;2024-02-21T06:14:45;11.07;;;4.20;;
3873;SDS011;1952;50.872;6.692;2024-02-21T06:17:14;19.63;;;5.93;;
3873;SDS011;1952;50.872;6.692;2024-02-21T06:19:42;9.10;;;6.83;;
3873;SDS011;1952;50.872;6.692;2024-02-21T06:22:11;8.90;;;5.53;;
3873;SDS011;1952;50.872;6.692;2024-02-21T06:24:41;9.23;;;4.80;;
3873;SDS011;1952;50.872;6.692;2024-02-21T06:27:10;7.30;;;4.50;;
3873;SDS011;1952;50.872;6.692;2024-02-21T06:29:38;12.00;;;5.93;;
3873;SDS011;1952;50.872;6.692;2024-02-21T06:32:07;10.17;;;5.60;;
3873;SDS011;1952;50.872;6.692;2024-02-21T06:34:35;6.90;;;4.83;;
3873;SDS011;1952;50.872;6.692;2024-02-21T06:37:04;6.83;;;5.10;;
3873;SDS011;1952;50.872;6.692;2024-02-21T06:39:32;8.47;;;5.40;;
3873;SDS011;1952;50.872;6.692;2024-02-21T06:42:04;9.47;;;4.40;;
3873;SDS011;1952;50.872;6.692;2024-02-21T06:44:32;6.20;;;4.53;;
3873;SDS011;1952;50.872;6.692;2024-02-21T06:47:06;8.33;;;5.10;;
3873;SDS011;1952;50.872;6.692;2024-02-21T06:49:35;9.90;;;5.10;;
3873;SDS011;1952;50.872;6.692;2024-02-21T06:52:32;7.90;;;5.50;;
3873;SDS011;1952;50.872;6.692;2024-02-21T06:55:29;10.17;;;5.53;;
3873;SDS011;1952;50.872;6.692;2024-02-21T07:23:58;7.17;;;5.07;;
3873;SDS011;1952;50.872;6.692;2024-02-21T07:26:27;8.83;;;4.77;;
3873;SDS011;1952;50.872;6.692;2024-02-21T07:28:58;8.17;;;4.40;;
3873;SDS011;1952;50.872;6.692;2024-02-21T07:31:29;10.50;;;5.90;;
3873;SDS011;1952;50.872;6.692;2024-02-21T07:34:06;5.27;;;4.40;;
3873;SDS011;1952;50.872;6.692;2024-02-21T07:36:35;8.03;;;4.33;;
3873;SDS011;1952;50.872;6.692;2024-02-21T07:39:07;8.70;;;4.23;;
3873;SDS011;1952;50.872;6.692;2024-02-21T07:41:37;6.67;;;5.37;;
3873;SDS011;1952;50.872;6.692;2024-02-21T07:44:19;9.20;;;5.90;;
3873;SDS011;1952;50.872;6.692;2024-02-21T07:46:48;6.10;;;4.67;;
3873;SDS011;1952;50.872;6.692;2024-02-21T07:49:18;8.30;;;5.17;;
3873;SDS011;1952;50.872;6.692;2024-02-21T07:51:48;8.00;;;4.50;;
3873;SDS011;1952;50.872;6.692;2024-02-21T07:54:22;9.90;;;4.80;;
3873;SDS011;1952;50.872;6.692;2024-02-21T07:56:54;6.43;;;3.83;;
3873;SDS011;1952;50.872;6.692;2024-02-21T07:59:26;6.60;;;5.00;;
3873;SDS011;1952;50.872;6.692;2024-02-21T08:02:00;13.23;;;5.93;;
3873;SDS011;1952;50.872;6.692;2024-02-21T08:04:36;5.73;;;4.47;;
3873;SDS011;1952;50.872;6.692;2024-02-21T08:07:07;9.13;;;5.53;;
3873;SDS011;1952;50.872;6.692;2024-02-21T08:09:43;10.20;;;4.80;;
3873;SDS011;1952;50.872;6.692;2024-02-21T08:12:13;9.53;;;4.80;;
3873;SDS011;1952;50.872;6.692;2024-02-21T08:14:44;5.43;;;4.20;;
3873;SDS011;1952;50.872;6.692;2024-02-21T08:17:14;9.47;;;4.80;;
3873;SDS011;1952;50.872;6.692;2024-02-21T08:19:50;7.00;;;5.20;;
3873;SDS011;1952;50.872;6.692;2024-02-21T08:25:04;9.80;;;5.23;;
3873;SDS011;1952;50.872;6.692;2024-02-21T08:27:37;8.93;;;4.60;;
3873;SDS011;1952;50.872;6.692;2024-02-21T08:30:06;6.97;;;5.03;;
3873;SDS011;1952;50.872;6.692;2024-02-21T08:32:43;7.40;;;4.50;;
3873;SDS011;1952;50.872;6.692;2024-02-21T08:35:13;7.63;;;4.57;;
3873;SDS011;1952;50.872;6.692;2024-02-21T08:37:45;7.17;;;4.67;;
3873;SDS011;1952;50.872;6.692;2024-02-21T08:40:18;8.27;;;4.10;;
3873;SDS011;1952;50.872;6.692;2024-02-21T08:42:57;9.40;;;4.67;;
3873;SDS011;1952;50.872;6.692;2024-02-21T08:45:26;5.33;;;4.10;;
3873;SDS011;1952;50.872;6.692;2024-02-21T08:47:54;11.70;;;5.30;;
3873;SDS011;1952;50.872;6.692;2024-02-21T08:50:23;8.70;;;4.90;;
3873;SDS011;1952;50.872;6.692;2024-02-21T08:52:56;4.77;;;3.60;;
3873;SDS011;1952;50.872;6.692;2024-02-21T08:55:26;8.13;;;3.97;;
3873;SDS011;1952;50.872;6.692;2024-02-21T08:57:57;5.90;;;3.97;;
3873;SDS011;1952;50.872;6.692;2024-02-21T09:00:33;5.30;;;3.10;;
3873;SDS011;1952;50.872;6.692;2024-02-21T09:03:03;5.70;;;3.63;;
3873;SDS011;1952;50.872;6.692;2024-02-21T09:05:38;5.80;;;4.20;;
3873;SDS011;1952;50.872;6.692;2024-02-21T09:08:30;6.00;;;4.27;;
3873;SDS011;1952;50.872;6.692;2024-02-21T09:11:15;8.20;;;4.60;;
3873;SDS011;1952;50.872;6.692;2024-02-21T09:16:16;7.93;;;4.80;;
3873;SDS011;1952;50.872;6.692;2024-02-21T09:18:45;5.77;;;4.43;;
3873;SDS011;1952;50.872;6.692;2024-02-21T09:21:14;6.13;;;3.97;;
3873;SDS011;1952;50.872;6.692;2024-02-21T09:23:59;7.50;;;3.70;;
3873;SDS011;1952;50.872;6.692;2024-02-21T09:26:34;7.23;;;4.30;;
3873;SDS011;1952;50.872;6.692;2024-02-21T09:29:03;6.10;;;4.47;;
3873;SDS011;1952;50.872;6.692;2024-02-21T09:31:34;5.20;;;4.27;;
3873;SDS011;1952;50.872;6.692;2024-02-21T09:34:05;8.37;;;3.60;;
3873;SDS011;1952;50.872;6.692;2024-02-21T09:36:37;7.07;;;4.10;;
3873;SDS011;1952;50.872;6.692;2024-02-21T09:39:07;6.90;;;4.43;;
3873;SDS011;1952;50.872;6.692;2024-02-21T09:41:40;7.40;;;4.40;;
3873;SDS011;1952;50.872;6.692;2024-02-21T09:44:14;7.40;;;4.00;;
3873;SDS011;1952;50.872;6.692;2024-02-21T09:46:44;5.30;;;4.30;;
3873;SDS011;1952;50.872;6.692;2024-02-21T09:49:21;5.40;;;4.17;;
3873;SDS011;1952;50.872;6.692;2024-02-21T09:52:21;5.17;;;3.87;;
3873;SDS011;1952;50.872;6.692;2024-02-21T09:55:31;4.03;;;3.63;;
3873;SDS011;1952;50.872;6.692;2024-02-21T10:01:07;4.80;;;3.67;;
3873;SDS011;1952;50.872;6.692;2024-02-21T10:03:57;4.43;;;4.03;;
3873;SDS011;1952;50.872;6.692;2024-02-21T10:06:31;6.80;;;4.37;;
3873;SDS011;1952;50.872;6.692;2024-02-21T10:09:00;4.63;;;4.23;;
3873;SDS011;1952;50.872;6.692;2024-02-21T10:11:31;6.03;;;3.63;;
3873;SDS011;1952;50.872;6.692;2024-02-21T10:14:04;7.07;;;5.17;;
3873;SDS011;1952;50.872;6.692;2024-02-21T10:16:43;5.50;;;3.47;;
3873;SDS011;1952;50.872;6.692;2024-02-21T10:19:18;9.30;;;4.77;;
3873;SDS011;1952;50.872;6.692;2024-02-21T10:24:39;7.50;;;4.20;;
3873;SDS011;1952;50.872;6.692;2024-02-21T10:27:09;10.77;;;5.13;;
3873;SDS011;1952;50.872;6.692;2024-02-21T10:29:41;9.40;;;4.37;;
3873;SDS011;1952;50.872;6.692;2024-02-21T10:32:16;6.47;;;4.73;;
3873;SDS011;1952;50.872;6.692;2024-02-21T10:34:47;8.60;;;4.60;;
3873;SDS011;1952;50.872;6.692;2024-02-21T10:37:41;6.57;;;3.70;;
3873;SDS011;1952;50.872;6.692;2024-02-21T10:40:19;6.10;;;3.67;;
3873;SDS011;1952;50.872;6.692;2024-02-21T10:42:48;8.70;;;3.80;;
3873;SDS011;1952;50.872;6.692;2024-02-21T10:45:21;7.47;;;4.10;;
3873;SDS011;1952;50.872;6.692;2024-02-21T10:47:56;5.40;;;3.90;;
3873;SDS011;1952;50.872;6.692;2024-02-21T10:50:32;4.23;;;3.83;;
3873;SDS011;1952;50.872;6.692;2024-02-21T10:53:05;5.20;;;3.90;;
3873;SDS011;1952;50.872;6.692;2024-02-21T10:55:38;11.10;;;5.37;;
3873;SDS011;1952;50.872;6.692;2024-02-21T10:58:08;7.60;;;4.30;;
3873;SDS011;1952;50.872;6.692;2024-02-21T11:00:39;4.57;;;3.67;;
3873;SDS011;1952;50.872;6.692;2024-02-21T11:03:14;4.00;;;3.30;;
3873;SDS011;1952;50.872;6.692;2024-02-21T11:05:46;6.67;;;4.20;;
3873;SDS011;1952;50.872;6.692;2024-02-21T11:08:15;7.60;;;3.97;;
3873;SDS011;1952;50.872;6.692;2024-02-21T11:10:46;6.17;;;3.50;;
3873;SDS011;1952;50.872;6.692;2024-02-21T11:13:15;7.13;;;4.27;;
3873;SDS011;1952;50.872;6.692;2024-02-21T11:15:47;4.97;;;4.00;;
3873;SDS011;1952;50.872;6.692;2024-02-21T11:40:08;9.07;;;3.83;;
3873;SDS011;1952;50.872;6.692;2024-02-21T11:43:05;5.20;;;3.20;;
3873;SDS011;1952;50.872;6.692;2024-02-21T11:46:06;6.17;;;3.77;;
3873;SDS011;1952;50.872;6.692;2024-02-21T11:51:48;4.00;;;3.60;;
3873;SDS011;1952;50.872;6.692;2024-02-21T11:54:20;5.57;;;4.47;;
3873;SDS011;1952;50.872;6.692;2024-02-21T11:59:54;4.70;;;3.87;;
3873;SDS011;1952;50.872;6.692;2024-02-21T12:02:27;5.30;;;3.70;;
3873;SDS011;1952;50.872;6.692;2024-02-21T12:04:57;9.07;;;3.60;;
3873;SDS011;1952;50.872;6.692;2024-02-21T12:07:39;7.40;;;3.97;;
3873;SDS011;1952;50.872;6.692;2024-02-21T12:10:14;5.50;;;3.57;;
3873;SDS011;1952;50.872;6.692;2024-02-21T12:13:07;7.40;;;3.60;;
3873;SDS011;1952;50.872;6.692;2024-02-21T13:01:04;5.33;;;4.73;;
3873;SDS011;1952;50.872;6.692;2024-02-21T13:04:02;5.40;;;4.10;;
3873;SDS011;1952;50.872;6.692;2024-02-21T13:56:15;11.37;;;4.47;;
3873;SDS011;1952;50.872;6.692;2024-02-21T14:01:19;4.63;;;3.63;;
3873;SDS011;1952;50.872;6.692;2024-02-21T14:03:48;3.80;;;3.33;;
3873;SDS011;1952;50.872;6.692;2024-02-21T14:06:28;3.47;;;3.17;;
3873;SDS011;1952;50.872;6.692;2024-02-21T14:09:01;6.70;;;4.03;;
3873;SDS011;1952;50.872;6.692;2024-02-21T14:11:33;7.20;;;4.57;;
3873;SDS011;1952;50.872;6.692;2024-02-21T14:14:09;6.00;;;3.47;;
3873;SDS011;1952;50.872;6.692;2024-02-21T14:16:57;6.63;;;3.30;;
3873;SDS011;1952;50.872;6.692;2024-02-21T14:37:58;8.53;;;4.00;;
3873;SDS011;1952;50.872;6.692;2024-02-21T14:43:03;3.90;;;2.73;;
3873;SDS011;1952;50.872;6.692;2024-02-21T14:45:32;3.90;;;3.40;;
3873;SDS011;1952;50.872;6.692;2024-02-21T14:48:00;4.30;;;3.73;;
3873;SDS011;1952;50.872;6.692;2024-02-21T14:50:30;8.90;;;5.83;;
3873;SDS011;1952;50.872;6.692;2024-02-21T14:53:03;6.63;;;3.90;;
3873;SDS011;1952;50.872;6.692;2024-02-21T14:55:39;5.73;;;3.40;;
3873;SDS011;1952;50.872;6.692;2024-02-21T14:58:12;4.40;;;2.83;;
3873;SDS011;1952;50.872;6.692;2024-02-21T15:00:42;6.90;;;3.77;;
3873;SDS011;1952;50.872;6.692;2024-02-21T15:03:11;5.53;;;3.60;;
3873;SDS011;1952;50.872;6.692;2024-02-21T15:05:46;4.20;;;3.80;;
3873;SDS011;1952;50.872;6.692;2024-02-21T15:08:22;3.80;;;2.80;;
3873;SDS011;1952;50.872;6.692;2024-02-21T15:10:50;4.23;;;3.57;;
3873;SDS011;1952;50.872;6.692;2024-02-21T15:13:31;5.63;;;2.90;;
3873;SDS011;1952;50.872;6.692;2024-02-21T15:16:03;4.13;;;3.73;;
3873;SDS011;1952;50.872;6.692;2024-02-21T15:18:33;3.20;;;2.80;;
3873;SDS011;1952;50.872;6.692;2024-02-21T15:21:04;2.90;;;2.60;;
3873;SDS011;1952;50.872;6.692;2024-02-21T15:26:38;3.43;;;3.10;;
3873;SDS011;1952;50.872;6.692;2024-02-21T15:32:05;5.10;;;2.87;;
3873;SDS011;1952;50.872;6.692;2024-02-21T15:34:49;4.10;;;3.03;;
3873;SDS011;1952;50.872;6.692;2024-02-21T15:37:26;3.00;;;2.80;;
3873;SDS011;1952;50.872;6.692;2024-02-21T15:39:58;3.20;;;2.87;;
3873;SDS011;1952;50.872;6.692;2024-02-21T15:42:35;5.53;;;2.80;;
3873;SDS011;1952;50.872;6.692;2024-02-21T15:45:05;5.07;;;2.83;;
3873;SDS011;1952;50.872;6.692;2024-02-21T15:47:50;3.53;;;2.20;;
3873;SDS011;1952;50.872;6.692;2024-02-21T15:50:21;4.77;;;3.00;;
3873;SDS011;1952;50.872;6.692;2024-02-21T15:52:50;3.50;;;3.20;;
3873;SDS011;1952;50.872;6.692;2024-02-21T15:55:19;4.30;;;2.40;;
3873;SDS011;1952;50.872;6.692;2024-02-21T15:58:02;3.23;;;2.67;;
3873;SDS011;1952;50.872;6.692;2024-02-21T16:00:31;2.80;;;2.50;;
3873;SDS011;1952;50.872;6.692;2024-02-21T16:03:02;4.00;;;2.83;;
3873;SDS011;1952;50.872;6.692;2024-02-21T16:05:38;3.83;;;2.73;;
3873;SDS011;1952;50.872;6.692;2024-02-21T16:08:11;3.87;;;3.10;;
3873;SDS011;1952;50.872;6.692;2024-02-21T16:10:39;4.70;;;3.03;;
3873;SDS011;1952;50.872;6.692;2024-02-21T16:13:30;4.20;;;3.00;;
3873;SDS011;1952;50.872;6.692;2024-02-21T16:16:02;3.10;;;2.00;;
3873;SDS011;1952;50.872;6.692;2024-02-21T16:18:30;5.17;;;3.20;;
3873;SDS011;1952;50.872;6.692;2024-02-21T16:20:59;4.50;;;2.30;;
3873;SDS011;1952;50.872;6.692;2024-02-21T16:23:28;4.40;;;2.80;;
3873;SDS011;1952;50.872;6.692;2024-02-21T16:26:03;3.20;;;2.90;;
3873;SDS011;1952;50.872;6.692;2024-02-21T16:28:34;4.53;;;2.60;;
3873;SDS011;1952;50.872;6.692;2024-02-21T16:31:04;4.00;;;3.60;;
3873;SDS011;1952;50.872;6.692;2024-02-21T16:33:47;5.60;;;3.07;;
3873;SDS011;1952;50.872;6.692;2024-02-21T16:36:19;6.13;;;3.37;;
3873;SDS011;1952;50.872;6.692;2024-02-21T16:38:52;5.40;;;3.30;;
3873;SDS011;1952;50.872;6.692;2024-02-21T16:41:24;5.70;;;3.70;;
3873;SDS011;1952;50.872;6.692;2024-02-21T16:43:57;4.23;;;2.67;;
3873;SDS011;1952;50.872;6.692;2024-02-21T16:46:25;4.13;;;3.33;;
3873;SDS011;1952;50.872;6.692;2024-02-21T16:48:54;5.63;;;2.93;;
3873;SDS011;1952;50.872;6.692;2024-02-21T16:51:37;6.80;;;4.20;;
3873;SDS011;1952;50.872;6.692;2024-02-21T16:54:20;5.33;;;4.27;;
3873;SDS011;1952;50.872;6.692;2024-02-21T16:56:49;5.20;;;2.77;;
3873;SDS011;1952;50.872;6.692;2024-02-21T16:59:21;3.57;;;3.27;;
3873;SDS011;1952;50.872;6.692;2024-02-21T17:01:50;5.00;;;3.00;;
3873;SDS011;1952;50.872;6.692;2024-02-21T17:04:18;7.60;;;3.20;;
3873;SDS011;1952;50.872;6.692;2024-02-21T17:06:47;4.23;;;3.60;;
3873;SDS011;1952;50.872;6.692;2024-02-21T17:09:34;5.80;;;3.40;;
3873;SDS011;1952;50.872;6.692;2024-02-21T17:12:17;4.93;;;3.43;;
3873;SDS011;1952;50.872;6.692;2024-02-21T17:15:01;3.27;;;2.40;;
3873;SDS011;1952;50.872;6.692;2024-02-21T17:17:59;3.30;;;2.97;;
3873;SDS011;1952;50.872;6.692;2024-02-21T17:20:59;4.87;;;4.30;;
3873;SDS011;1952;50.872;6.692;2024-02-21T17:23:28;2.93;;;2.73;;
3873;SDS011;1952;50.872;6.692;2024-02-21T17:26:11;5.73;;;3.53;;
3873;SDS011;1952;50.872;6.692;2024-02-21T17:28:41;6.83;;;3.37;;
3873;SDS011;1952;50.872;6.692;2024-02-21T17:31:26;3.90;;;3.50;;
3873;SDS011;1952;50.872;6.692;2024-02-21T17:34:00;5.00;;;3.10;;
3873;SDS011;1952;50.872;6.692;2024-02-21T17:36:31;6.60;;;3.90;;
3873;SDS011;1952;50.872;6.692;2024-02-21T17:39:14;6.37;;;3.47;;
3873;SDS011;1952;50.872;6.692;2024-02-21T17:41:51;7.07;;;3.30;;
3873;SDS011;1952;50.872;6.692;2024-02-21T17:44:36;3.23;;;2.90;;
3873;SDS011;1952;50.872;6.692;2024-02-21T17:47:11;8.53;;;4.03;;
3873;SDS011;1952;50.872;6.692;2024-02-21T17:49:40;4.50;;;3.77;;
3873;SDS011;1952;50.872;6.692;2024-02-21T17:52:13;4.70;;;3.10;;
3873;SDS011;1952;50.872;6.692;2024-02-21T17:54:43;5.83;;;3.10;;
3873;SDS011;1952;50.872;6.692;2024-02-21T17:57:13;4.23;;;3.00;;
3873;SDS011;1952;50.872;6.692;2024-02-21T17:59:42;5.00;;;3.60;;
3873;SDS011;1952;50.872;6.692;2024-02-21T18:02:14;5.17;;;3.33;;
3873;SDS011;1952;50.872;6.692;2024-02-21T18:04:46;3.40;;;2.30;;
3873;SDS011;1952;50.872;6.692;2024-02-21T18:07:15;6.33;;;3.00;;
3873;SDS011;1952;50.872;6.692;2024-02-21T18:09:47;6.70;;;2.97;;
3873;SDS011;1952;50.872;6.692;2024-02-21T18:12:17;2.90;;;2.70;;
3873;SDS011;1952;50.872;6.692;2024-02-21T18:14:46;7.23;;;2.60;;
3873;SDS011;1952;50.872;6.692;2024-02-21T18:17:26;4.83;;;2.87;;
3873;SDS011;1952;50.872;6.692;2024-02-21T18:19:54;5.13;;;2.77;;
3873;SDS011;1952;50.872;6.692;2024-02-21T18:22:25;4.90;;;3.30;;
3873;SDS011;1952;50.872;6.692;2024-02-21T18:24:55;6.63;;;3.67;;
3873;SDS011;1952;50.872;6.692;2024-02-21T18:27:23;6.90;;;4.07;;
3873;SDS011;1952;50.872;6.692;2024-02-21T18:29:59;5.77;;;2.90;;
3873;SDS011;1952;50.872;6.692;2024-02-21T18:32:35;4.63;;;2.93;;
3873;SDS011;1952;50.872;6.692;2024-02-21T18:35:06;4.73;;;2.90;;
3873;SDS011;1952;50.872;6.692;2024-02-21T18:37:36;10.30;;;4.47;;
3873;SDS011;1952;50.872;6.692;2024-02-21T18:40:05;5.83;;;3.30;;
3873;SDS011;1952;50.872;6.692;2024-02-21T18:42:39;5.37;;;2.90;;
3873;SDS011;1952;50.872;6.692;2024-02-21T18:45:08;3.93;;;2.80;;
3873;SDS011;1952;50.872;6.692;2024-02-21T18:47:41;4.47;;;2.80;;
3873;SDS011;1952;50.872;6.692;2024-02-21T18:50:10;6.63;;;2.90;;
3873;SDS011;1952;50.872;6.692;2024-02-21T18:52:39;6.90;;;3.20;;
3873;SDS011;1952;50.872;6.692;2024-02-21T18:55:12;6.07;;;3.73;;
3873;SDS011;1952;50.872;6.692;2024-02-21T18:57:43;11.37;;;4.00;;
3873;SDS011;1952;50.872;6.692;2024-02-21T19:00:12;3.93;;;3.03;;
3873;SDS011;1952;50.872;6.692;2024-02-21T19:02:44;7.73;;;3.27;;
3873;SDS011;1952;50.872;6.692;2024-02-21T19:05:13;4.00;;;3.53;;
3873;SDS011;1952;50.872;6.692;2024-02-21T19:07:45;7.43;;;3.33;;
3873;SDS011;1952;50.872;6.692;2024-02-21T19:10:13;3.83;;;3.53;;
3873;SDS011;1952;50.872;6.692;2024-02-21T19:12:42;9.70;;;3.50;;
3873;SDS011;1952;50.872;6.692;2024-02-21T19:15:12;4.90;;;3.60;;
3873;SDS011;1952;50.872;6.692;2024-02-21T19:17:40;6.20;;;4.40;;
3873;SDS011;1952;50.872;6.692;2024-02-21T19:20:11;6.43;;;3.40;;
3873;SDS011;1952;50.872;6.692;2024-02-21T19:22:40;4.37;;;3.70;;
3873;SDS011;1952;50.872;6.692;2024-02-21T19:25:12;5.63;;;4.17;;
3873;SDS011;1952;50.872;6.692;2024-02-21T19:27:45;4.80;;;3.87;;